• Join FlightAware (Why Join?)
  • Login
  • US Flag 
12:34PM EDT


 

Airport Tracker/Info


-or-


 

Live Flight TrackerFlight Track Log ✈ AWE2690 ✈ 04-Sep-2013 ✈ KCLT - KIND

Flight Track Log - Related Links

Times and Time Zones

All times are in EDT time to prevent confusion due to time zone crossing. See the AWE2690 flight status page for this flight to view local times or setup timezone preferences in your user account.

Time Position Orientation Groundspeed Altitude Reporting Facility
EDT Latitude Longitude Course Direction KTS MPH feet Rate Location/Type
01:34PM 35.2353 -80.9594 332° Northwest 172 198 1,700  Level Atlanta Center
01:35PM 35.3094 -81.0075 332° Northwest 272 313 4,300 2,340 Climbing Atlanta Center
01:36PM 35.3861 -80.9894 11° North 272 313 7,300 3,000 Climbing Atlanta Center
01:37PM 35.4628 -80.9661 14° North 278 320 10,300 2,340 Climbing Atlanta Center
01:38PM 35.5497 -80.9400 14° North 297 342 12,000 1,740 Climbing Atlanta Center
01:39PM 35.6397 -80.9442 358° North 317 365 13,800 2,160 Climbing Atlanta Center
01:40PM 35.7244 -81.0025 331° Northwest 333 383 16,400 2,100 Climbing Atlanta Center
01:41PM 35.8114 -81.0606 332° Northwest 352 405 18,100 1,800 Climbing Atlanta Center
01:42PM 35.9025 -81.1189 333° Northwest 365 420 20,100 1,860 Climbing Atlanta Center
01:43PM 35.9817 -81.1981 321° Northwest 365 420 21,900 1,680 Climbing Atlanta Center
01:44PM 36.0342 -81.3067 301° West 365 420 23,500 1,560 Climbing Atlanta Center
01:45PM 36.0928 -81.4203 303° West 376 433 25,100 1,500 Climbing Atlanta Center
01:46PM 36.1517 -81.5317 303° West 390 449 26,500 1,260 Climbing Atlanta Center
01:47PM 36.2036 -81.6356 302° West 390 449 27,700 1,260 Climbing Atlanta Center
01:48PM 36.2644 -81.7547 302° West 401 461 29,100 1,320 Climbing Atlanta Center
01:49PM 36.3250 -81.8714 303° West 401 461 30,400 1,140 Climbing Atlanta Center
01:50PM 36.3833 -81.9911 301° West 401 461 31,400 1,200 Climbing Atlanta Center
01:51PM 36.4458 -82.1133 302° West 411 473 32,800 1,200 Climbing Atlanta Center
01:52PM 36.5058 -82.2358 301° West 422 486 33,900 600 Climbing Atlanta Center
01:53PM 36.5681 -82.3561 303° West 422 486 34,000  Climbing Atlanta Center
01:55PM 36.6514 -82.5189 303° West 416 479 34,000  Level Indianapolis Center
01:56PM 36.7111 -82.6400 302° West 411 473 34,000  Level Indianapolis Center
01:57PM 36.7706 -82.7619 301° West 410 472 34,000  Level Indianapolis Center
01:58PM 36.8392 -82.9000 302° West 413 475 34,000  Level Indianapolis Center
01:59PM 36.8942 -83.0153 301° West 418 481 34,000  Level Indianapolis Center
02:00PM 36.9658 -83.1575 302° West 412 474 34,000  Level Indianapolis Center
02:01PM 37.0258 -83.2803 301° West 413 475 34,000  Level Indianapolis Center
02:02PM 37.0856 -83.4031 301° West 413 475 34,000  Level Indianapolis Center
02:03PM 37.1464 -83.5267 302° West 414 476 34,000  Level Indianapolis Center
02:04PM 37.2056 -83.6511 301° West 416 479 34,000  Level Indianapolis Center
02:05PM 37.2656 -83.7758 301° West 415 478 34,000  Level Indianapolis Center
02:06PM 37.3261 -83.9011 301° West 419 482 34,000  Level Indianapolis Center
02:07PM 37.3950 -84.0475 301° West 417 480 34,000  Level Indianapolis Center
02:08PM 37.4525 -84.1703 301° West 409 471 34,000  Level Indianapolis Center
02:09PM 37.5111 -84.2869 302° West 398 458 34,000  Level Indianapolis Center
02:10PM 37.5894 -84.3811 316° Northwest 387 445 34,000  Level Indianapolis Center
02:11PM 37.6692 -84.4772 316° Northwest 392 451 34,000 -300 Level Indianapolis Center
02:12PM 37.7481 -84.5756 315° West 399 459 33,400 -780 Descending Indianapolis Center
02:13PM 37.8272 -84.6722 316° Northwest 394 453 32,400 -1,080 Descending Indianapolis Center
02:14PM 37.9192 -84.7861 316° Northwest 395 455 31,200 -1,080 Descending Indianapolis Center
02:15PM 38.0006 -84.8875 316° Northwest 409 471 30,200 -1,020 Descending Indianapolis Center
02:16PM 38.0842 -84.9939 315° West 421 484 29,200 -1,020 Descending Indianapolis Center
02:17PM 38.1675 -85.0975 316° Northwest 417 480 28,200 -1,080 Descending Indianapolis Center
02:18PM 38.2450 -85.1967 315° West 398 458 27,000 -1,260 Descending Indianapolis Center
02:19PM 38.3250 -85.2969 315° West 386 444 25,700 -1,320 Descending Indianapolis Center
02:20PM 38.3994 -85.3906 315° West 376 433 24,300 -1,620 Descending Indianapolis Center
02:21PM 38.4856 -85.4639 326° Northwest 394 453 22,400 -1,800 Descending Indianapolis Center
02:22PM 38.5858 -85.5069 341° North 384 442 20,700 -1,740 Descending Indianapolis Center
02:23PM 38.6867 -85.5508 341° North 382 440 18,900 -1,860 Descending Indianapolis Center
02:24PM 38.8056 -85.6019 341° North 378 435 16,900 -1,860 Descending Indianapolis Center
02:25PM 38.9031 -85.6433 342° North 373 429 15,100 -1,500 Descending Indianapolis Center
02:26PM 38.9978 -85.6850 341° North 366 421 13,800 -1,140 Descending Indianapolis Center
02:28PM 39.0833 -85.7214 342° North 339 390 12,800 -1,020 Descending Indianapolis Center
02:29PM 39.1631 -85.7383 351° North 302 348 11,800 -1,020 Descending Indianapolis Center
02:30PM 39.2394 -85.7517 352° North 281 323 10,800 -900 Descending Indianapolis Center
02:31PM 39.3275 -85.7858 343° North 295 339 10,000 -420 Descending Indianapolis Center
02:32PM 39.3844 -85.8517 318° Northwest 276 318 10,000  Level Indianapolis Center
02:33PM 39.4442 -85.9214 318° Northwest 288 331 10,000 -360 Level Indianapolis Center
02:34PM 39.4978 -85.9850 318° Northwest 266 306 9,300 -840 Descending Indianapolis Center
02:35PM 39.5503 -86.0483 317° Northwest 257 296 8,300 -1,020 Descending Indianapolis Center
02:36PM 39.6039 -86.1128 317° Northwest 262 302 7,300 -840 Descending Indianapolis Center
02:37PM 39.6653 -86.1572 331° Northwest 234 269 6,600 -1,380 Descending Indianapolis Center
02:38PM 39.7083 -86.1125 39° Northeast 207 238 4,500 -1,260 Descending Indianapolis Center
02:39PM 39.7506 -86.0664 40° Northeast 204 235 4,000 -300 Descending Indianapolis Center
02:40PM 39.7942 -86.0878 339° North 198 228 4,000 -360 Level Indianapolis Center
02:41PM 39.8208 -86.1367 305° West 191 220 3,300 -720 Descending Indianapolis Center
02:42PM 39.7850 -86.1981 233° Southwest 186 214 2,600 -780 Descending Indianapolis Center
02:43PM 39.7536 -86.2361 223° Southwest 172 198 1,800 -780 Descending Indianapolis Center
02:44PM 39.7236 -86.2742 224° Southwest 156 180 1,100 -540 Descending Indianapolis Center
02:45PM 39.7067 -86.2975 227° Southwest 114 131 800 -180 Descending Indianapolis Center
02:46PM 39.7100 -86.2956 24° Northeast 49 56 800  Level Indianapolis Center
02:47PM 39.7125 -86.2933 34° Northeast 25 29 800  Level Indianapolis Center
02:48PM 39.7147 -86.2925 16° North 15 17 800  Level Indianapolis Center
02:49PM 39.7144 -86.2925 180° South 6 7 800  Level Indianapolis Center
02:50PM 39.7158 -86.2914 32° Northeast 4 5 800  Level Indianapolis Center
02:51PM 39.7161 -86.2947 276° West 6 7 800  Level Indianapolis Center
02:52PM 39.7161 -86.2978 270° West 7 8 800  Level Indianapolis Center